Terminal Aerodrome Forecast
Issued by NWS Albany, NY

Home | Current Version | Previous Version | Text Only | Print | Product List | Glossary On
Versions: 1 2 3 4 5 6 7 8 9 10 11 12 13 14 15
000
FTUS41 KALY 231700
TAFALB
TAF
KALB 231723Z 2318/2418 31014G26KT P6SM OVC045
     FM232000 32020G32KT P6SM BKN045
     FM240100 31014G24KT P6SM SCT050
     FM241400 32020G30KT P6SM SKC=

USA.gov is the U.S. government's official web portal to all federal, state and local government web resources and services.